Aérodrome :
LOGIN :

S'inscrire | Disclaimer

   EN    FR    IT 

 










Légende :    VFR   VFR Marginal   IFR   IFR Intensif   IFR Très Intensif
Visi : 
Plafond : 
>= 8 km
>= 3000ft
5 à 8 km
1000 à 3000 ft
1500m à 5 km
500 à 1000 ft
800 à 1500m
200 à 500 ft
< 800m
< 200 ft
Symboles :   Orages  Brouillard  Fortes neiges  Fortes précipitations  Vent > 20 kt
SIGMETs :   Divers  Orages  Givrage  Turbulence  Onde Orograph.  Cendres Volcan.






- Altitude de l'aérodrome : 194 ft


EBCV - Chièvres

METAR N/A
TAF TAF EBCV
Valide du 12 à 19h jusqu'au 13 à 07h UTC


121541Z 1219/1307 18015G25KT 6000 -RA SCT012 BKN015
TEMPO 1219/1224 18025G35KT 3500 RA RADZ SCT008 BKN012
BECMG 1300/1302 NSW SCT020 BKN030
TEMPO 1302/1307 20020G30KT 3000 RA SHRA SCT010CB BKN020
PROB30
TEMPO 1302/1305 20025G35KT 1500 +RA +SHRA BKN010CB BKN015 BY EBWM



MET'MAP, la Météo Aéronautique d'un coup d'oeil ! - Copyright ORBIFLY Décembre 2007 - Disclaimer

ORBIFLY MET'MAP TEAM :

Programmation & Développement : Alexandra Zaïnal
Sur une idée originale de : Baudouin d'Aumeries
Assistance à la programmation : Marc-Olivier Méhu
Soutien technique & logistique : Manuel Goepfert

Contact : metmap@orbifly.com




SOURCES & CREDITS :

   NOAA